Time;durP1;ratioP1;P1;durP2;ratioP2;P2;SDS_P1;SDS_P2;PMS_P1;PMS_P2;Temp;Humidity;BMP_temperature;BMP_pressure;BME280_temperature;BME280_humidity;BME280_pressure;Samples;Min_cycle;Max_cycle;Signal;HPM_P1;HPM_P2
2023/10/25 00:00:00;;;;;;;12.57;4.10;;;;;;;10.52;86.98;100273.03;10378321;28;20133;-62
2023/10/25 00:05:01;;;;;;;8.77;4.10;;;;;;;10.92;86.41;100306.66;10378753;28;20045;-62
2023/10/25 00:10:02;;;;;;;11.70;4.35;;;;;;;10.78;85.83;100246.22;10378119;28;20045;-62
2023/10/25 00:15:04;;;;;;;12.35;4.63;;;;;;;11.31;85.69;100311.13;10378964;28;20041;-62
2023/10/25 00:20:06;;;;;;;8.02;4.38;;;;;;;11.10;84.72;100255.91;10377494;28;20046;-62
2023/10/25 00:25:07;;;;;;;10.85;4.40;;;;;;;11.42;84.14;100294.78;10360527;28;20041;-62
2023/10/25 00:30:09;;;;;;;8.80;4.63;;;;;;;11.38;84.88;100288.16;10377927;28;20042;-62
2023/10/25 00:35:09;;;;;;;9.68;4.75;;;;;;;11.23;84.60;100283.75;10360908;28;20041;-63
2023/10/25 00:40:11;;;;;;;76.35;8.07;;;;;;;10.98;85.17;100289.19;10376788;28;20397;-62
2023/10/25 00:45:13;;;;;;;39.83;5.93;;;;;;;10.79;85.64;100282.41;10376636;28;20068;-62
2023/10/25 00:50:17;;;;;;;44.05;6.60;;;;;;;10.61;86.30;100287.13;10377680;28;20432;-62
2023/10/25 00:55:18;;;;;;;12.23;4.95;;;;;;;10.51;86.39;100293.44;10375818;28;20037;-62
2023/10/25 01:00:19;;;;;;;11.02;4.70;;;;;;;10.37;86.81;100304.75;10359713;28;20093;-62
2023/10/25 01:05:19;;;;;;;7.78;4.78;;;;;;;10.32;87.34;100307.09;10376535;28;20096;-62
2023/10/25 01:10:20;;;;;;;38.95;5.88;;;;;;;10.30;87.80;100305.59;10375940;28;20064;-62
2023/10/25 01:15:22;;;;;;;14.35;5.38;;;;;;;10.36;87.94;100313.72;10375602;28;20535;-63
2023/10/25 01:20:23;;;;;;;21.75;5.15;;;;;;;10.43;87.77;100316.53;10357105;28;20038;-64
2023/10/25 01:25:24;;;;;;;24.65;5.40;;;;;;;10.35;87.51;100314.72;10374798;28;20072;-62
2023/10/25 01:30:26;;;;;;;19.58;6.03;;;;;;;10.20;87.88;100300.41;10375567;28;20073;-62
2023/10/25 01:35:28;;;;;;;12.07;5.25;;;;;;;10.17;88.04;100309.56;10375519;28;20045;-62
2023/10/25 01:40:28;;;;;;;11.70;5.25;;;;;;;10.07;88.25;100314.19;10374728;28;20042;-62
2023/10/25 01:45:30;;;;;;;11.32;4.78;;;;;;;9.95;88.93;100312.84;10376172;28;20504;-62
2023/10/25 01:50:31;;;;;;;11.90;5.30;;;;;;;9.48;89.29;100263.91;10375402;28;20042;-62
2023/10/25 01:55:31;;;;;;;13.35;5.95;;;;;;;9.30;89.32;100237.50;10374246;28;20037;-62
2023/10/25 02:00:32;;;;;;;13.55;5.88;;;;;;;9.67;89.44;100314.97;10374468;28;20136;-62
2023/10/25 02:05:33;;;;;;;15.32;5.60;;;;;;;9.60;89.58;100309.47;10373402;28;20045;-62
2023/10/25 02:10:35;;;;;;;21.85;6.32;;;;;;;9.24;89.67;100279.72;10372898;28;20038;-62
2023/10/25 02:15:36;;;;;;;29.08;6.55;;;;;;;9.32;89.92;100304.44;10373606;28;20056;-62
2023/10/25 02:20:37;;;;;;;27.40;6.75;;;;;;;9.33;89.86;100318.50;10374264;28;20048;-62
2023/10/25 02:25:37;;;;;;;15.73;6.72;;;;;;;8.84;90.51;100267.97;10373124;28;20096;-63
2023/10/25 02:30:38;;;;;;;15.55;6.25;;;;;;;9.01;90.59;100322.72;10371771;28;20056;-62
2023/10/25 02:35:39;;;;;;;14.63;6.75;;;;;;;8.95;90.81;100335.75;10372737;28;20042;-62
2023/10/25 02:40:40;;;;;;;26.83;7.10;;;;;;;8.81;91.14;100329.22;10373741;28;20746;-62
2023/10/25 02:45:40;;;;;;;32.45;7.03;;;;;;;8.94;91.63;100342.03;10372512;28;20052;-62
2023/10/25 02:50:41;;;;;;;14.63;6.90;;;;;;;8.94;91.40;100361.41;10372901;28;20072;-62
2023/10/25 02:55:44;;;;;;;53.97;8.90;;;;;;;8.85;91.58;100357.88;10355216;28;20045;-62
2023/10/25 03:00:45;;;;;;;24.15;7.50;;;;;;;8.85;91.20;100357.88;10372892;28;20081;-62
2023/10/25 03:05:46;;;;;;;135.18;11.77;;;;;;;8.37;91.56;100290.34;10371535;28;20069;-62
2023/10/25 03:10:46;;;;;;;12.85;6.25;;;;;;;8.76;91.59;100373.88;10372712;28;20038;-62
2023/10/25 03:15:48;;;;;;;29.45;6.55;;;;;;;8.66;91.74;100373.97;10372220;28;20100;-62
2023/10/25 03:20:49;;;;;;;83.60;9.38;;;;;;;8.62;91.65;100375.28;10372341;28;20046;-62
2023/10/25 03:25:49;;;;;;;29.65;6.80;;;;;;;8.50;91.62;100371.22;10378452;28;20049;-62
2023/10/25 03:30:50;;;;;;;15.73;6.13;;;;;;;8.37;91.60;100364.47;10375066;28;20460;-63
2023/10/25 03:35:52;;;;;;;22.75;6.45;;;;;;;7.68;91.43;100284.00;10368082;28;20417;-63
2023/10/25 03:41:04;;;;;;;22.35;6.57;;;;;;;8.11;93.40;100385.59;10370909;28;20042;-62
2023/10/25 03:46:07;;;;;;;24.48;6.47;;;;;;;8.01;92.87;100395.38;10371719;28;20053;-63
2023/10/25 03:51:08;;;;;;;29.65;7.57;;;;;;;7.98;92.77;100391.22;10370450;28;20042;-63
2023/10/25 03:56:08;;;;;;;28.05;8.18;;;;;;;7.90;93.05;100403.56;10371183;28;20484;-65
2023/10/25 04:01:10;;;;;;;30.70;8.18;;;;;;;7.87;93.18;100399.41;10371871;28;20100;-63
2023/10/25 04:06:11;;;;;;;70.57;9.73;;;;;;;7.90;92.75;100406.22;10371166;28;20115;-63
2023/10/25 04:11:11;;;;;;;58.22;9.05;;;;;;;7.90;92.91;100400.91;10370870;28;20117;-63
2023/10/25 04:16:12;;;;;;;40.88;8.82;;;;;;;8.32;93.53;100416.22;10372342;28;20128;-62
2023/10/25 04:35:45;;;;;;;27.13;8.55;;;;;;;10.35;89.93;100431.56;10512134;27;1730089;-62
2023/10/25 04:40:46;;;;;;;17.95;6.13;;;;;;;10.35;88.03;100406.81;10513985;28;20594;-63
2023/10/25 04:45:47;;;;;;;77.78;8.82;;;;;;;11.04;86.68;100449.78;10530879;28;20060;-61
2023/10/25 04:50:48;;;;;;;19.95;6.55;;;;;;;11.59;85.31;100459.66;10531165;28;20040;-61
2023/10/25 04:55:49;;;;;;;20.00;6.72;;;;;;;11.92;84.46;100459.56;10530715;28;20122;-62
2023/10/25 05:00:50;;;;;;;10.43;5.75;;;;;;;12.19;83.79;100460.91;10530774;28;20576;-63
2023/10/25 05:05:51;;;;;;;12.63;6.10;;;;;;;12.23;83.08;100420.41;10530428;28;20032;-64
2023/10/25 05:38:13;;;;;;;26.85;7.45;;;;;;;13.81;76.92;100414.22;10483745;28;20406;-63
2023/10/25 05:43:15;;;;;;;16.45;7.65;;;;;;;14.22;75.62;100409.13;10482890;28;20135;-62
2023/10/25 05:48:16;;;;;;;32.45;13.93;;;;;;;14.51;74.53;100396.66;10482210;28;20051;-63
2023/10/25 05:53:18;;;;;;;25.60;12.95;;;;;;;14.74;73.80;100405.28;10482492;28;20040;-62
2023/10/25 05:58:19;;;;;;;33.80;9.18;;;;;;;14.97;73.41;100396.22;10481435;28;20075;-62
2023/10/25 06:03:22;;;;;;;13.98;5.53;;;;;;;15.27;72.40;100396.81;10481763;28;20041;-62
2023/10/25 06:08:23;;;;;;;10.63;6.30;;;;;;;15.35;71.89;100409.22;10482847;28;20051;-63
2023/10/25 06:13:24;;;;;;;17.17;6.40;;;;;;;15.64;71.22;100386.69;10480906;28;20049;-62
2023/10/25 06:18:25;;;;;;;10.05;5.03;;;;;;;15.61;69.92;100338.88;10480495;28;20052;-62
2023/10/25 06:23:25;;;;;;;46.10;6.85;;;;;;;15.92;69.65;100333.88;10480985;28;20051;-62
2023/10/25 06:28:26;;;;;;;14.57;5.43;;;;;;;16.61;68.65;100390.84;10480879;28;20404;-62
2023/10/25 06:33:27;;;;;;;14.10;5.45;;;;;;;16.80;67.77;100390.03;10481233;28;20069;-63
2023/10/25 06:38:28;;;;;;;13.27;5.60;;;;;;;17.05;67.02;100387.53;10456960;28;20509;-62
2023/10/25 06:43:30;;;;;;;14.25;5.38;;;;;;;17.27;65.76;100385.41;10453251;28;20037;-62
2023/10/25 06:48:31;;;;;;;8.95;3.25;;;;;;;17.42;64.41;100390.53;10452663;28;20049;-62
2023/10/25 06:53:33;;;;;;;8.93;3.72;;;;;;;17.58;63.31;100397.28;10452952;28;20059;-62
2023/10/25 06:58:34;;;;;;;17.67;9.55;;;;;;;17.58;62.51;100384.66;10453127;28;20045;-64
2023/10/25 07:03:37;;;;;;;9.52;4.85;;;;;;;17.67;61.72;100389.81;10451977;28;20109;-62
2023/10/25 07:08:38;;;;;;;9.00;3.42;;;;;;;17.76;61.35;100386.66;10452613;28;20048;-62
2023/10/25 07:13:38;;;;;;;10.60;3.63;;;;;;;17.78;60.60;100371.19;10452359;28;20048;-62
2023/10/25 07:18:39;;;;;;;8.38;3.30;;;;;;;18.03;60.09;100370.41;10452446;28;20041;-62
2023/10/25 07:23:40;;;;;;;8.60;3.30;;;;;;;17.77;59.42;100328.41;10453041;28;20104;-63
2023/10/25 07:28:41;;;;;;;11.27;3.20;;;;;;;18.12;58.97;100376.38;10451847;28;20407;-63
2023/10/25 07:33:42;;;;;;;4.65;2.60;;;;;;;18.34;57.95;100379.56;10450989;28;20057;-62
2023/10/25 07:38:42;;;;;;;12.80;3.65;;;;;;;18.48;57.59;100320.03;10450533;28;20077;-62
2023/10/25 07:43:43;;;;;;;4.70;2.92;;;;;;;18.85;56.44;100367.75;10451228;28;20033;-62
2023/10/25 07:48:44;;;;;;;5.85;2.65;;;;;;;18.46;56.01;100316.75;10450089;28;20048;-62
2023/10/25 07:53:45;;;;;;;7.28;2.60;;;;;;;18.65;55.58;100360.66;10450417;28;20045;-63
2023/10/25 07:58:46;;;;;;;7.50;3.05;;;;;;;18.83;55.19;100359.91;10450306;28;20045;-64
2023/10/25 08:03:46;;;;;;;5.57;2.05;;;;;;;18.60;54.60;100336.25;10450591;28;20441;-63
2023/10/25 08:08:50;;;;;;;4.93;2.42;;;;;;;18.69;54.13;100313.41;10449967;28;20041;-63
2023/10/25 08:13:51;;;;;;;5.68;2.63;;;;;;;19.07;53.52;100349.31;10449820;28;20503;-63
2023/10/25 08:18:52;;;;;;;8.23;2.70;;;;;;;19.20;52.60;100333.00;10449693;28;20045;-64
2023/10/25 08:23:54;;;;;;;4.80;2.38;;;;;;;19.09;52.41;100307.66;10449417;28;20037;-64
2023/10/25 08:28:55;;;;;;;7.28;2.72;;;;;;;19.01;51.89;100312.50;10450838;28;20132;-64
2023/10/25 08:33:56;;;;;;;4.82;2.17;;;;;;;19.00;51.58;100292.03;10449579;28;20143;-63
2023/10/25 08:38:57;;;;;;;8.52;6.22;;;;;;;19.66;50.54;100342.41;10449792;28;20473;-64
2023/10/25 08:43:58;;;;;;;5.78;3.50;;;;;;;19.67;50.13;100319.78;10448860;28;20101;-63
2023/10/25 08:48:59;;;;;;;7.53;3.30;;;;;;;19.63;50.00;100336.63;10449867;28;20037;-64
2023/10/25 08:54:00;;;;;;;17.05;8.18;;;;;;;19.71;49.67;100336.31;10449069;28;20116;-64
2023/10/25 08:59:01;;;;;;;14.27;8.27;;;;;;;19.49;49.68;100290.19;10448066;28;20064;-63
2023/10/25 09:04:08;;;;;;;10.20;3.40;;;;;;;19.94;48.63;100320.25;10448249;28;20052;-63
2023/10/25 09:09:09;;;;;;;13.48;7.85;;;;;;;19.73;48.57;100267.69;10448842;28;20055;-64
2023/10/25 09:14:11;;;;;;;5.55;3.60;;;;;;;19.46;48.73;100261.00;10448689;28;20078;-63
2023/10/25 09:19:19;;;;;;;6.00;2.80;;;;;;;19.71;48.20;100301.28;10449022;28;20510;-63
2023/10/25 09:24:20;;;;;;;5.45;2.30;;;;;;;19.42;48.58;100282.19;10448316;28;20083;-63
2023/10/25 09:29:25;;;;;;;3.33;2.17;;;;;;;19.41;48.54;100291.28;10447586;28;20475;-63
2023/10/25 09:34:27;;;;;;;4.55;2.03;;;;;;;19.55;47.81;100249.66;10446418;28;20064;-63
2023/10/25 09:39:27;;;;;;;9.95;2.67;;;;;;;19.91;46.89;100295.63;10447848;28;20522;-63
2023/10/25 09:44:34;;;;;;;8.75;2.53;;;;;;;19.65;47.09;100303.03;10446602;28;20033;-63
2023/10/25 09:49:41;;;;;;;15.65;4.95;;;;;;;19.15;47.82;100260.16;10447037;28;20132;-63
2023/10/25 09:54:52;;;;;;;9.18;4.57;;;;;;;19.15;47.99;100265.53;10445972;28;21022;-63
2023/10/25 09:59:55;;;;;;;7.45;2.90;;;;;;;19.51;48.36;100299.69;10447958;28;20072;-63
2023/10/25 10:05:08;;;;;;;9.02;2.25;;;;;;;19.43;47.58;100248.78;10447342;28;20041;-63
2023/10/25 10:10:52;;;;;;;16.55;2.80;;;;;;;19.80;48.15;100284.59;10447392;28;20037;-64
2023/10/25 10:16:04;;;;;;;10.27;2.50;;;;;;;19.67;48.05;100278.56;10433646;28;20055;-63
2023/10/25 10:21:07;;;;;;;11.07;2.17;;;;;;;19.54;48.62;100282.22;10453463;28;20049;-63
2023/10/25 10:26:08;;;;;;;5.13;2.63;;;;;;;19.65;48.45;100276.06;10453943;28;20037;-63
2023/10/25 10:31:10;;;;;;;8.05;2.70;;;;;;;19.65;48.33;100280.66;10454110;28;20033;-63
2023/10/25 10:36:23;;;;;;;9.05;3.65;;;;;;;19.54;47.84;100258.00;10453636;28;20408;-62
2023/10/25 10:41:30;;;;;;;4.95;2.50;;;;;;;19.42;48.76;100276.78;10452804;28;20041;-62
2023/10/25 10:46:33;;;;;;;6.13;2.20;;;;;;;19.07;49.15;100266.66;10453103;28;20114;-63
2023/10/25 10:51:35;;;;;;;4.10;2.10;;;;;;;18.64;49.39;100215.59;10452519;28;20679;-63
2023/10/25 10:56:36;;;;;;;6.53;3.22;;;;;;;18.80;49.62;100249.19;10452916;28;20049;-63
2023/10/25 11:01:37;;;;;;;9.27;3.05;;;;;;;18.82;49.77;100277.53;10454265;28;20077;-63
2023/10/25 11:06:39;;;;;;;6.28;2.60;;;;;;;18.75;49.53;100282.13;10452715;28;20506;-63
2023/10/25 11:11:40;;;;;;;9.70;4.47;;;;;;;18.84;49.82;100283.47;10453060;28;20042;-62
2023/10/25 11:16:41;;;;;;;14.65;7.22;;;;;;;19.00;49.52;100273.19;10452342;28;20040;-63
2023/10/25 11:21:44;;;;;;;6.25;2.50;;;;;;;18.89;49.52;100250.53;10452086;28;20041;-66
2023/10/25 11:26:45;;;;;;;11.68;3.10;;;;;;;19.00;49.30;100263.25;10452268;28;20049;-63
2023/10/25 11:31:48;;;;;;;19.95;3.60;;;;;;;19.04;49.56;100271.69;10451208;28;20044;-63
2023/10/25 11:36:49;;;;;;;28.53;4.20;;;;;;;18.31;49.84;100162.97;10451114;28;20064;-63
2023/10/25 11:41:50;;;;;;;10.63;2.80;;;;;;;18.54;49.89;100216.09;10450898;28;20041;-63
2023/10/25 11:46:58;;;;;;;6.80;2.78;;;;;;;18.50;49.82;100203.34;10452098;28;20029;-63
2023/10/25 11:51:59;;;;;;;8.35;3.20;;;;;;;18.69;50.09;100248.00;10450966;28;20404;-63
2023/10/25 11:57:00;;;;;;;13.90;3.78;;;;;;;18.80;50.21;100260.75;10449810;28;20041;-63
2023/10/25 12:02:00;;;;;;;6.25;2.90;;;;;;;18.93;49.88;100252.56;10449589;28;20538;-63
2023/10/25 12:07:01;;;;;;;11.65;3.17;;;;;;;18.96;50.04;100253.94;10450762;28;20065;-63
2023/10/25 12:12:02;;;;;;;11.65;3.22;;;;;;;18.81;50.25;100257.03;10450927;28;20033;-63
2023/10/25 12:17:05;;;;;;;18.15;4.30;;;;;;;18.65;50.69;100266.47;10448585;28;20049;-63
2023/10/25 12:22:08;;;;;;;46.53;12.98;;;;;;;18.30;51.10;100230.41;10449271;28;20067;-63
2023/10/25 12:27:11;;;;;;;27.10;9.65;;;;;;;18.52;51.27;100266.63;10449945;28;20185;-63
2023/10/25 12:32:11;;;;;;;38.33;10.45;;;;;;;18.21;51.99;100211.06;10448382;28;20041;-63
2023/10/25 12:37:12;;;;;;;47.40;7.97;;;;;;;18.56;52.36;100278.56;10446454;28;20065;-62
2023/10/25 12:42:13;;;;;;;14.10;3.78;;;;;;;18.33;51.78;100228.09;10445950;28;20049;-62
2023/10/25 12:47:14;;;;;;;25.65;4.93;;;;;;;18.60;52.11;100277.06;10449431;28;20037;-63
2023/10/25 12:52:14;;;;;;;29.60;7.10;;;;;;;18.39;52.25;100255.97;10447726;28;20094;-64
2023/10/25 12:57:15;;;;;;;14.00;5.15;;;;;;;18.30;52.43;100260.00;10448142;28;20052;-63
2023/10/25 13:02:16;;;;;;;11.77;4.15;;;;;;;18.34;52.22;100274.66;10448188;28;20503;-63
2023/10/25 13:07:17;;;;;;;15.00;3.33;;;;;;;18.03;53.85;100246.78;10448279;28;20077;-64
2023/10/25 13:12:18;;;;;;;18.98;4.07;;;;;;;17.87;54.53;100242.78;10448178;28;20037;-64
2023/10/25 13:17:18;;;;;;;106.00;7.65;;;;;;;17.86;55.94;100261.78;10448232;28;20113;-63
2023/10/25 13:22:19;;;;;;;45.40;6.25;;;;;;;17.64;58.62;100256.75;10448272;28;20063;-63
2023/10/25 13:27:20;;;;;;;79.88;7.32;;;;;;;17.46;60.20;100252.09;10443704;28;20819;-63
2023/10/25 13:32:21;;;;;;;22.13;4.97;;;;;;;17.23;60.51;100241.91;10445580;28;20045;-63
2023/10/25 13:37:22;;;;;;;16.27;4.90;;;;;;;17.16;60.23;100256.38;10448619;28;20072;-63
2023/10/25 13:42:23;;;;;;;119.47;8.68;;;;;;;17.11;61.44;100268.59;10447266;28;20407;-63
2023/10/25 13:47:23;;;;;;;60.47;7.00;;;;;;;16.62;62.64;100208.25;10450271;28;20045;-65
2023/10/25 13:52:24;;;;;;;143.98;11.20;;;;;;;16.83;63.53;100258.16;10451563;28;20114;-64
2023/10/25 13:57:25;;;;;;;67.32;7.50;;;;;;;16.66;64.15;100244.34;10453195;28;20052;-63
2023/10/25 14:02:26;;;;;;;38.78;5.72;;;;;;;16.42;63.81;100221.72;10454549;28;20033;-63
2023/10/25 14:07:27;;;;;;;38.58;5.32;;;;;;;16.52;63.71;100266.06;10454942;28;20487;-64
2023/10/25 14:12:29;;;;;;;33.72;6.20;;;;;;;15.74;63.68;100179.09;10447440;28;20517;-63
2023/10/25 14:17:30;;;;;;;147.32;11.65;;;;;;;16.02;65.15;100236.19;10452310;28;20041;-64
2023/10/25 14:22:31;;;;;;;304.48;19.67;;;;;;;16.07;66.38;100265.88;10453824;28;20488;-63
2023/10/25 14:27:34;;;;;;;110.25;11.50;;;;;;;15.98;66.91;100265.25;10454292;28;20135;-63
2023/10/25 14:32:34;;;;;;;110.20;12.13;;;;;;;15.49;67.51;100204.78;10450380;28;20416;-65
2023/10/25 14:37:35;;;;;;;128.30;11.32;;;;;;;15.67;68.66;100269.31;10448291;28;20063;-63
2023/10/25 14:42:36;;;;;;;80.85;13.63;;;;;;;15.52;69.65;100266.81;10448785;28;20453;-63
2023/10/25 14:47:37;;;;;;;255.77;93.03;;;;;;;15.47;69.29;100266.56;10452776;28;20135;-63
2023/10/25 14:52:38;;;;;;;205.25;73.95;;;;;;;15.38;69.32;100270.47;10452796;28;20041;-63
2023/10/25 14:57:40;;;;;;;204.80;67.68;;;;;;;15.29;69.74;100287.72;10452556;28;20093;-63
2023/10/25 15:02:40;;;;;;;206.20;72.40;;;;;;;15.12;70.65;100276.53;10453676;28;20123;-63
2023/10/25 15:07:41;;;;;;;228.38;72.85;;;;;;;15.22;71.19;100293.03;10452599;28;20041;-63
2023/10/25 15:12:42;;;;;;;196.95;74.00;;;;;;;15.15;71.74;100291.38;10451942;28;20052;-63
2023/10/25 15:17:47;;;;;;;174.30;72.80;;;;;;;15.10;72.23;100277.75;10452310;28;20132;-63
2023/10/25 15:22:48;;;;;;;185.00;76.45;;;;;;;15.07;72.18;100282.47;10452359;28;20041;-63
2023/10/25 15:27:52;;;;;;;235.05;84.50;;;;;;;15.10;72.78;100288.44;10444818;28;20085;-63
2023/10/25 15:32:53;;;;;;;183.25;67.50;;;;;;;15.10;71.36;100280.41;10447149;28;20557;-64
2023/10/25 15:37:54;;;;;;;174.50;72.18;;;;;;;14.95;71.35;100270.69;10452602;28;20056;-63
2023/10/25 15:42:54;;;;;;;182.75;72.85;;;;;;;14.84;71.56;100252.53;10445618;28;20067;-66
2023/10/25 15:47:55;;;;;;;168.43;69.25;;;;;;;14.85;71.81;100272.91;10447224;28;20033;-64
2023/10/25 15:52:56;;;;;;;170.82;69.20;;;;;;;14.82;71.99;100273.28;10451122;28;20377;-63
2023/10/25 15:57:57;;;;;;;162.15;67.22;;;;;;;14.75;72.21;100267.91;10450695;28;20041;-66
2023/10/25 16:02:58;;;;;;;169.98;62.45;;;;;;;14.68;72.65;100268.88;10450792;28;20045;-64
2023/10/25 16:07:59;;;;;;;150.57;56.35;;;;;;;14.56;72.88;100266.75;10448027;28;20489;-64
2023/10/25 16:12:59;;;;;;;149.43;57.45;;;;;;;14.42;73.59;100251.66;10449830;28;20045;-63
2023/10/25 16:18:00;;;;;;;132.52;48.90;;;;;;;13.55;73.56;100123.78;10448831;28;20412;-63
2023/10/25 16:23:01;;;;;;;117.07;45.90;;;;;;;14.31;73.46;100247.66;10450243;28;20033;-64
2023/10/25 16:28:02;;;;;;;121.05;46.75;;;;;;;14.16;73.90;100238.91;10447308;28;20135;-64
2023/10/25 16:33:04;;;;;;;106.50;43.95;;;;;;;14.15;75.04;100224.72;10432079;28;20036;-64
2023/10/25 16:38:09;;;;;;;108.45;41.47;;;;;;;14.06;75.35;100231.25;10433780;28;20061;-63
2023/10/25 16:43:10;;;;;;;100.18;36.90;;;;;;;14.02;75.33;100221.94;10427296;28;20080;-62
2023/10/25 16:48:11;;;;;;;76.20;31.95;;;;;;;14.02;75.09;100221.13;10432009;28;20043;-62
2023/10/25 16:53:11;;;;;;;166.32;60.47;;;;;;;13.96;74.72;100201.34;10428920;28;20066;-62
2023/10/25 16:58:12;;;;;;;115.60;46.38;;;;;;;13.94;75.17;100190.06;10426170;28;20037;-64
2023/10/25 17:03:13;;;;;;;122.63;46.75;;;;;;;14.01;75.52;100217.63;10432825;28;20044;-64
2023/10/25 17:08:14;;;;;;;149.25;57.20;;;;;;;13.94;75.80;100214.09;10430386;28;20075;-64
2023/10/25 17:13:15;;;;;;;117.28;45.05;;;;;;;13.63;75.62;100153.84;10425671;28;20050;-64
2023/10/25 17:18:15;;;;;;;111.85;40.83;;;;;;;13.95;75.43;100202.38;10426316;28;20037;-64
2023/10/25 17:23:17;;;;;;;97.18;43.58;;;;;;;13.98;75.59;100196.66;10425275;28;20616;-63
2023/10/25 17:28:18;;;;;;;103.22;46.33;;;;;;;13.73;75.68;100163.38;10430517;28;20066;-64
2023/10/25 17:33:19;;;;;;;110.80;41.22;;;;;;;13.85;76.57;100177.84;10426630;28;20046;-63
2023/10/25 17:38:20;;;;;;;105.95;40.08;;;;;;;13.88;76.94;100194.31;10435345;28;20048;-63
2023/10/25 17:43:22;;;;;;;98.97;40.28;;;;;;;13.92;76.99;100200.91;10439900;28;20037;-62
2023/10/25 17:48:23;;;;;;;151.13;67.97;;;;;;;13.87;76.85;100199.84;10416945;28;20042;-62
2023/10/25 17:53:24;;;;;;;191.35;84.10;;;;;;;13.89;77.49;100203.16;10433073;28;20185;-63
2023/10/25 17:58:25;;;;;;;204.85;88.20;;;;;;;13.78;77.64;100182.31;10447922;28;20174;-63
2023/10/25 18:03:27;;;;;;;147.70;67.75;;;;;;;13.52;77.54;100148.19;10447231;28;20047;-62
2023/10/25 18:08:28;;;;;;;113.03;47.42;;;;;;;13.72;77.84;100212.44;10445619;28;20037;-63
2023/10/25 18:13:29;;;;;;;79.75;37.22;;;;;;;13.55;78.00;100207.38;10447050;28;20037;-63
2023/10/25 18:18:30;;;;;;;92.07;37.10;;;;;;;13.41;78.43;100170.91;10445720;28;20036;-63
2023/10/25 18:23:31;;;;;;;96.68;43.00;;;;;;;13.43;78.23;100168.84;10446112;28;20420;-62
2023/10/25 18:28:32;;;;;;;168.93;77.78;;;;;;;13.44;77.80;100166.00;10446886;28;20048;-62
2023/10/25 18:33:32;;;;;;;101.63;48.03;;;;;;;13.48;77.27;100139.75;10451126;28;20070;-62
2023/10/25 18:38:34;;;;;;;66.78;29.85;;;;;;;13.35;76.55;100091.63;10454338;28;20045;-62
2023/10/25 18:43:35;;;;;;;51.05;23.13;;;;;;;13.68;76.04;100124.75;10454515;28;20050;-62
2023/10/25 18:48:36;;;;;;;105.80;49.53;;;;;;;13.57;77.28;100145.78;10453414;28;20033;-62
2023/10/25 18:53:37;;;;;;;61.17;27.27;;;;;;;13.50;78.21;100156.41;10451563;28;20131;-62
2023/10/25 18:58:38;;;;;;;61.58;27.90;;;;;;;13.43;78.64;100152.84;10453816;28;20128;-62
2023/10/25 19:03:39;;;;;;;100.20;24.85;;;;;;;13.52;78.45;100146.38;10452920;28;20049;-61
2023/10/25 19:08:41;;;;;;;45.70;20.17;;;;;;;13.13;78.44;100077.44;10451570;28;20044;-63
2023/10/25 19:13:42;;;;;;;55.70;20.20;;;;;;;13.61;78.02;100145.22;10451602;28;20051;-62
2023/10/25 19:18:43;;;;;;;43.83;20.05;;;;;;;13.46;78.36;100158.66;10452536;28;20043;-62
2023/10/25 19:23:46;;;;;;;36.40;16.20;;;;;;;13.28;79.00;100152.09;10452170;28;20527;-64
2023/10/25 19:28:47;;;;;;;31.38;15.68;;;;;;;13.18;79.15;100129.19;10452486;28;20037;-61
2023/10/25 19:33:48;;;;;;;35.97;16.70;;;;;;;13.28;79.02;100154.75;10450727;28;20064;-62
2023/10/25 19:38:49;;;;;;;45.15;15.30;;;;;;;13.30;78.80;100144.72;10451139;28;20436;-62
2023/10/25 19:43:50;;;;;;;19.77;8.40;;;;;;;13.38;77.45;100149.94;10452055;28;20060;-62
2023/10/25 19:48:50;;;;;;;19.52;7.13;;;;;;;13.41;76.62;100138.88;10451658;28;20065;-62
2023/10/25 19:53:51;;;;;;;16.85;7.55;;;;;;;13.45;75.62;100122.28;10451275;28;20039;-62
2023/10/25 19:58:52;;;;;;;14.40;6.85;;;;;;;13.45;75.37;100119.63;10450713;28;20045;-62
2023/10/25 20:03:53;;;;;;;24.48;6.90;;;;;;;13.36;75.59;100115.44;10450459;28;20045;-62
2023/10/25 20:08:54;;;;;;;24.52;7.65;;;;;;;13.30;75.69;100099.38;10450783;28;20041;-62
2023/10/25 20:13:56;;;;;;;38.58;7.90;;;;;;;13.32;76.08;100121.34;10450457;28;20055;-63
2023/10/25 20:18:57;;;;;;;30.17;7.00;;;;;;;13.27;76.43;100100.56;10449847;28;20120;-62
2023/10/25 20:24:00;;;;;;;13.40;6.63;;;;;;;13.16;76.12;100080.56;10448758;28;20049;-63
2023/10/25 20:29:03;;;;;;;10.37;6.33;;;;;;;13.35;75.62;100091.63;10428301;28;20101;-65
2023/10/25 20:34:03;;;;;;;19.83;7.13;;;;;;;13.40;75.99;100099.84;10408897;28;20077;-62
2023/10/25 20:39:04;;;;;;;15.13;5.38;;;;;;;13.44;75.61;100106.47;10408190;28;20057;-62
2023/10/25 20:44:05;;;;;;;14.18;4.95;;;;;;;13.09;75.05;100034.31;10408892;28;20611;-62
2023/10/25 20:49:06;;;;;;;15.45;5.55;;;;;;;13.44;74.63;100085.97;10408037;28;20056;-63
2023/10/25 20:54:07;;;;;;;10.48;5.10;;;;;;;13.37;74.23;100069.09;10408170;28;20083;-62
2023/10/25 20:59:08;;;;;;;11.02;5.22;;;;;;;13.41;74.00;100085.53;10408818;28;20542;-62
2023/10/25 21:04:08;;;;;;;9.75;4.90;;;;;;;13.43;74.17;100083.47;10415594;28;20040;-62
2023/10/25 21:09:09;;;;;;;29.45;4.75;;;;;;;13.39;74.44;100084.88;10449032;28;20069;-62
2023/10/25 21:14:10;;;;;;;9.13;4.60;;;;;;;13.14;74.93;100061.25;10448998;28;20033;-62
2023/10/25 21:19:11;;;;;;;9.60;4.90;;;;;;;12.89;75.16;100023.50;10448091;28;20072;-62
2023/10/25 21:24:12;;;;;;;10.60;4.60;;;;;;;13.26;75.01;100085.59;10447954;28;20033;-62
2023/10/25 21:29:12;;;;;;;10.88;4.80;;;;;;;12.86;75.61;100041.69;10449051;28;20045;-62
2023/10/25 21:34:13;;;;;;;10.05;5.05;;;;;;;13.22;75.54;100084.28;10448270;28;20065;-62
2023/10/25 21:39:14;;;;;;;11.00;4.88;;;;;;;13.26;75.08;100077.59;10448233;28;20061;-62
2023/10/25 21:44:15;;;;;;;11.70;4.82;;;;;;;13.28;74.35;100072.06;10448051;28;20053;-62
2023/10/25 21:49:16;;;;;;;12.70;4.60;;;;;;;13.41;74.24;100074.84;10447424;28;20044;-62
2023/10/25 21:54:17;;;;;;;7.75;4.68;;;;;;;13.46;73.97;100069.75;10447719;28;20507;-63
2023/10/25 21:59:18;;;;;;;9.48;4.50;;;;;;;13.14;74.22;100015.91;10448321;28;20037;-62
2023/10/25 22:04:21;;;;;;;11.02;4.35;;;;;;;13.44;74.43;100064.59;10447518;28;20041;-62
2023/10/25 22:09:22;;;;;;;8.45;4.30;;;;;;;13.44;74.03;100053.13;10452941;28;20066;-62
2023/10/25 22:14:22;;;;;;;9.25;4.28;;;;;;;13.35;74.42;100035.59;10454672;28;20068;-62
2023/10/25 22:19:23;;;;;;;10.40;4.55;;;;;;;13.29;74.54;100042.53;10454243;28;20037;-62
2023/10/25 22:24:24;;;;;;;12.63;4.50;;;;;;;13.17;74.25;100028.03;10452226;28;20132;-62
2023/10/25 22:29:25;;;;;;;8.25;4.53;;;;;;;13.27;74.45;100038.41;10453956;28;20053;-62
2023/10/25 22:34:26;;;;;;;9.63;4.38;;;;;;;13.19;74.53;100025.97;10452316;28;20061;-62
2023/10/25 22:39:27;;;;;;;10.25;4.90;;;;;;;13.17;74.77;100042.19;10453452;28;20045;-62
2023/10/25 22:44:28;;;;;;;7.68;4.63;;;;;;;13.09;74.77;100053.00;10453645;28;20496;-62
2023/10/25 22:49:29;;;;;;;7.63;4.10;;;;;;;13.00;75.17;100062.13;10453598;28;20068;-62
2023/10/25 22:54:30;;;;;;;8.40;4.45;;;;;;;13.08;74.83;100086.00;10452841;28;20041;-62
2023/10/25 22:59:31;;;;;;;8.23;4.80;;;;;;;13.10;74.73;100091.16;10453127;28;20033;-64
2023/10/25 23:04:32;;;;;;;22.58;4.80;;;;;;;12.89;75.35;100066.16;10453298;28;20484;-63
2023/10/25 23:09:33;;;;;;;9.70;4.60;;;;;;;12.87;75.54;100054.03;10451670;28;20037;-63
2023/10/25 23:14:34;;;;;;;6.97;4.47;;;;;;;12.81;76.67;100039.59;10452011;28;20045;-63
2023/10/25 23:19:35;;;;;;;6.82;4.78;;;;;;;12.74;77.20;100026.22;10452464;28;20068;-63
2023/10/25 23:24:36;;;;;;;10.95;4.75;;;;;;;12.76;77.59;100023.34;10452380;28;20568;-62
2023/10/25 23:29:37;;;;;;;10.40;5.15;;;;;;;12.64;77.92;100031.03;10452217;28;20041;-63